sensor_id;sensor_type;location;lat;lon;timestamp;temperature;humidity
15241;DHT22;7723;52.170;9.978;2023-04-25T00:00:02;7.10;99.90
15241;DHT22;7723;52.170;9.978;2023-04-25T00:02:32;7.10;99.90
15241;DHT22;7723;52.170;9.978;2023-04-25T00:05:00;7.10;99.90
15241;DHT22;7723;52.170;9.978;2023-04-25T00:07:29;7.10;99.90
15241;DHT22;7723;52.170;9.978;2023-04-25T00:09:56;7.10;99.90
15241;DHT22;7723;52.170;9.978;2023-04-25T00:12:23;7.00;99.90
15241;DHT22;7723;52.170;9.978;2023-04-25T00:14:52;7.00;99.90
15241;DHT22;7723;52.170;9.978;2023-04-25T00:17:19;7.00;99.90
15241;DHT22;7723;52.170;9.978;2023-04-25T00:19:47;6.90;99.90
15241;DHT22;7723;52.170;9.978;2023-04-25T00:22:15;6.90;99.90
15241;DHT22;7723;52.170;9.978;2023-04-25T00:24:43;6.90;99.90
15241;DHT22;7723;52.170;9.978;2023-04-25T00:27:10;6.80;99.90
15241;DHT22;7723;52.170;9.978;2023-04-25T00:29:37;6.80;99.90
15241;DHT22;7723;52.170;9.978;2023-04-25T00:32:06;6.80;99.90
15241;DHT22;7723;52.170;9.978;2023-04-25T00:34:33;6.70;99.90
15241;DHT22;7723;52.170;9.978;2023-04-25T00:37:00;6.70;99.90
15241;DHT22;7723;52.170;9.978;2023-04-25T00:39:28;6.60;99.90
15241;DHT22;7723;52.170;9.978;2023-04-25T00:41:55;6.60;99.90
15241;DHT22;7723;52.170;9.978;2023-04-25T00:44:24;6.20;99.90
15241;DHT22;7723;52.170;9.978;2023-04-25T00:46:52;6.60;99.90
15241;DHT22;7723;52.170;9.978;2023-04-25T00:49:21;6.60;99.90
15241;DHT22;7723;52.170;9.978;2023-04-25T00:51:49;6.50;99.90
15241;DHT22;7723;52.170;9.978;2023-04-25T00:54:16;6.50;99.90
15241;DHT22;7723;52.170;9.978;2023-04-25T00:56:44;6.40;99.90
15241;DHT22;7723;52.170;9.978;2023-04-25T00:59:12;6.40;99.90
15241;DHT22;7723;52.170;9.978;2023-04-25T01:01:41;6.40;99.90
15241;DHT22;7723;52.170;9.978;2023-04-25T01:04:09;6.40;99.90
15241;DHT22;7723;52.170;9.978;2023-04-25T01:06:38;6.40;99.90
15241;DHT22;7723;52.170;9.978;2023-04-25T01:09:05;6.50;99.90
15241;DHT22;7723;52.170;9.978;2023-04-25T01:11:33;6.50;99.90
15241;DHT22;7723;52.170;9.978;2023-04-25T01:14:00;6.50;99.90
15241;DHT22;7723;52.170;9.978;2023-04-25T01:16:27;6.50;99.90
15241;DHT22;7723;52.170;9.978;2023-04-25T01:18:54;6.50;99.90
15241;DHT22;7723;52.170;9.978;2023-04-25T01:21:23;6.50;99.90
15241;DHT22;7723;52.170;9.978;2023-04-25T01:23:53;6.50;99.90
15241;DHT22;7723;52.170;9.978;2023-04-25T01:26:21;6.60;99.90
15241;DHT22;7723;52.170;9.978;2023-04-25T01:28:49;5.70;99.90
15241;DHT22;7723;52.170;9.978;2023-04-25T01:31:17;6.50;99.90
15241;DHT22;7723;52.170;9.978;2023-04-25T01:33:45;6.50;99.90
15241;DHT22;7723;52.170;9.978;2023-04-25T01:36:12;6.50;99.90
15241;DHT22;7723;52.170;9.978;2023-04-25T01:38:41;6.50;99.90
15241;DHT22;7723;52.170;9.978;2023-04-25T01:41:09;6.50;99.90
15241;DHT22;7723;52.170;9.978;2023-04-25T01:43:36;6.50;99.90
15241;DHT22;7723;52.170;9.978;2023-04-25T01:46:04;6.50;99.90
15241;DHT22;7723;52.170;9.978;2023-04-25T01:48:31;6.50;99.90
15241;DHT22;7723;52.170;9.978;2023-04-25T01:50:58;6.50;99.90
15241;DHT22;7723;52.170;9.978;2023-04-25T01:53:25;6.50;99.90
15241;DHT22;7723;52.170;9.978;2023-04-25T01:55:54;6.50;99.90
15241;DHT22;7723;52.170;9.978;2023-04-25T01:58:21;6.50;99.90
15241;DHT22;7723;52.170;9.978;2023-04-25T02:00:48;6.50;99.90
15241;DHT22;7723;52.170;9.978;2023-04-25T02:03:15;6.50;99.90
15241;DHT22;7723;52.170;9.978;2023-04-25T02:05:42;6.50;99.90
15241;DHT22;7723;52.170;9.978;2023-04-25T02:08:09;6.60;99.90
15241;DHT22;7723;52.170;9.978;2023-04-25T02:10:36;7.60;99.90
15241;DHT22;7723;52.170;9.978;2023-04-25T02:13:05;6.50;99.90
15241;DHT22;7723;52.170;9.978;2023-04-25T02:15:32;6.50;99.90
15241;DHT22;7723;52.170;9.978;2023-04-25T02:17:59;6.50;99.90
15241;DHT22;7723;52.170;9.978;2023-04-25T02:20:28;6.50;99.90
15241;DHT22;7723;52.170;9.978;2023-04-25T02:22:56;6.50;99.90
15241;DHT22;7723;52.170;9.978;2023-04-25T02:25:23;6.50;99.90
15241;DHT22;7723;52.170;9.978;2023-04-25T02:27:50;6.50;99.90
15241;DHT22;7723;52.170;9.978;2023-04-25T02:30:19;6.50;99.90
15241;DHT22;7723;52.170;9.978;2023-04-25T02:32:46;6.50;99.90
15241;DHT22;7723;52.170;9.978;2023-04-25T02:35:13;6.50;99.90
15241;DHT22;7723;52.170;9.978;2023-04-25T02:37:41;6.50;99.90
15241;DHT22;7723;52.170;9.978;2023-04-25T02:40:09;6.50;99.90
15241;DHT22;7723;52.170;9.978;2023-04-25T02:42:36;6.50;99.90
15241;DHT22;7723;52.170;9.978;2023-04-25T02:45:04;6.40;99.90
15241;DHT22;7723;52.170;9.978;2023-04-25T02:47:33;6.30;99.90
15241;DHT22;7723;52.170;9.978;2023-04-25T02:50:00;6.30;99.90
15241;DHT22;7723;52.170;9.978;2023-04-25T02:52:27;6.30;99.90
15241;DHT22;7723;52.170;9.978;2023-04-25T02:54:54;6.30;99.90
15241;DHT22;7723;52.170;9.978;2023-04-25T02:57:21;6.20;99.90
15241;DHT22;7723;52.170;9.978;2023-04-25T02:59:48;6.20;99.90
15241;DHT22;7723;52.170;9.978;2023-04-25T03:02:15;6.20;99.90
15241;DHT22;7723;52.170;9.978;2023-04-25T03:04:44;6.10;99.90
15241;DHT22;7723;52.170;9.978;2023-04-25T03:07:11;6.10;99.90
15241;DHT22;7723;52.170;9.978;2023-04-25T03:09:38;6.10;99.90
15241;DHT22;7723;52.170;9.978;2023-04-25T03:12:06;6.10;99.90
15241;DHT22;7723;52.170;9.978;2023-04-25T03:14:33;6.10;99.90
15241;DHT22;7723;52.170;9.978;2023-04-25T03:17:00;6.10;99.90
15241;DHT22;7723;52.170;9.978;2023-04-25T03:19:27;6.00;99.90
15241;DHT22;7723;52.170;9.978;2023-04-25T03:21:55;5.90;99.90
15241;DHT22;7723;52.170;9.978;2023-04-25T03:24:22;5.80;99.90
15241;DHT22;7723;52.170;9.978;2023-04-25T03:26:50;5.80;99.90
15241;DHT22;7723;52.170;9.978;2023-04-25T03:29:17;5.80;99.90
15241;DHT22;7723;52.170;9.978;2023-04-25T03:31:44;5.80;99.90
15241;DHT22;7723;52.170;9.978;2023-04-25T03:34:11;5.80;99.90
15241;DHT22;7723;52.170;9.978;2023-04-25T03:36:39;5.80;99.90
15241;DHT22;7723;52.170;9.978;2023-04-25T03:39:08;5.80;99.90
15241;DHT22;7723;52.170;9.978;2023-04-25T03:41:35;5.80;99.90
15241;DHT22;7723;52.170;9.978;2023-04-25T03:44:02;5.80;99.90
15241;DHT22;7723;52.170;9.978;2023-04-25T03:46:29;5.80;99.90
15241;DHT22;7723;52.170;9.978;2023-04-25T03:48:56;6.50;99.90
15241;DHT22;7723;52.170;9.978;2023-04-25T03:51:25;5.80;99.90
15241;DHT22;7723;52.170;9.978;2023-04-25T03:53:52;5.80;99.90
15241;DHT22;7723;52.170;9.978;2023-04-25T03:56:21;5.80;99.90
15241;DHT22;7723;52.170;9.978;2023-04-25T03:58:48;5.80;99.90
15241;DHT22;7723;52.170;9.978;2023-04-25T04:01:15;5.80;99.90
15241;DHT22;7723;52.170;9.978;2023-04-25T04:03:42;5.80;99.90
15241;DHT22;7723;52.170;9.978;2023-04-25T04:06:09;5.80;99.90
15241;DHT22;7723;52.170;9.978;2023-04-25T04:08:36;5.80;99.90
15241;DHT22;7723;52.170;9.978;2023-04-25T04:11:03;5.80;99.90
15241;DHT22;7723;52.170;9.978;2023-04-25T04:13:32;5.90;99.90
15241;DHT22;7723;52.170;9.978;2023-04-25T04:15:59;5.90;99.90
15241;DHT22;7723;52.170;9.978;2023-04-25T04:18:26;5.90;99.90
15241;DHT22;7723;52.170;9.978;2023-04-25T04:20:53;5.90;99.90
15241;DHT22;7723;52.170;9.978;2023-04-25T04:23:20;5.90;99.90
15241;DHT22;7723;52.170;9.978;2023-04-25T04:25:48;5.90;99.90
15241;DHT22;7723;52.170;9.978;2023-04-25T04:28:15;5.90;99.90
15241;DHT22;7723;52.170;9.978;2023-04-25T04:30:44;5.90;99.90
15241;DHT22;7723;52.170;9.978;2023-04-25T04:33:12;5.90;99.90
15241;DHT22;7723;52.170;9.978;2023-04-25T04:35:41;5.90;99.90
15241;DHT22;7723;52.170;9.978;2023-04-25T04:38:08;5.90;99.90
15241;DHT22;7723;52.170;9.978;2023-04-25T04:40:36;5.90;99.90
15241;DHT22;7723;52.170;9.978;2023-04-25T04:43:03;5.90;99.90
15241;DHT22;7723;52.170;9.978;2023-04-25T04:45:31;5.90;99.90
15241;DHT22;7723;52.170;9.978;2023-04-25T04:48:00;5.90;99.90
15241;DHT22;7723;52.170;9.978;2023-04-25T04:50:27;5.90;99.90
15241;DHT22;7723;52.170;9.978;2023-04-25T04:52:54;5.90;99.90
15241;DHT22;7723;52.170;9.978;2023-04-25T04:55:21;5.90;99.90
15241;DHT22;7723;52.170;9.978;2023-04-25T04:57:49;6.00;99.90
15241;DHT22;7723;52.170;9.978;2023-04-25T05:00:16;6.00;99.90
15241;DHT22;7723;52.170;9.978;2023-04-25T05:02:43;6.00;99.90
15241;DHT22;7723;52.170;9.978;2023-04-25T05:05:12;6.00;99.90
15241;DHT22;7723;52.170;9.978;2023-04-25T05:07:39;6.00;99.90
15241;DHT22;7723;52.170;9.978;2023-04-25T05:10:07;6.00;99.90
15241;DHT22;7723;52.170;9.978;2023-04-25T05:12:35;6.10;99.90
15241;DHT22;7723;52.170;9.978;2023-04-25T05:15:02;6.10;99.90
15241;DHT22;7723;52.170;9.978;2023-04-25T05:17:29;6.20;99.90
15241;DHT22;7723;52.170;9.978;2023-04-25T05:19:56;6.30;99.90
15241;DHT22;7723;52.170;9.978;2023-04-25T05:22:25;6.30;99.90
15241;DHT22;7723;52.170;9.978;2023-04-25T05:24:52;6.30;99.90
15241;DHT22;7723;52.170;9.978;2023-04-25T05:27:20;6.40;99.90
15241;DHT22;7723;52.170;9.978;2023-04-25T05:29:47;6.40;99.90
15241;DHT22;7723;52.170;9.978;2023-04-25T05:32:14;6.40;99.90
15241;DHT22;7723;52.170;9.978;2023-04-25T05:34:41;6.40;99.90
15241;DHT22;7723;52.170;9.978;2023-04-25T05:37:08;6.50;99.90
15241;DHT22;7723;52.170;9.978;2023-04-25T05:39:37;6.50;99.90
15241;DHT22;7723;52.170;9.978;2023-04-25T05:42:04;6.50;99.90
15241;DHT22;7723;52.170;9.978;2023-04-25T05:44:31;6.70;99.90
15241;DHT22;7723;52.170;9.978;2023-04-25T05:46:58;6.60;99.90
15241;DHT22;7723;52.170;9.978;2023-04-25T05:49:25;6.70;99.90
15241;DHT22;7723;52.170;9.978;2023-04-25T05:51:52;6.90;99.90
15241;DHT22;7723;52.170;9.978;2023-04-25T05:54:20;7.20;99.90
15241;DHT22;7723;52.170;9.978;2023-04-25T05:56:48;7.20;99.90
15241;DHT22;7723;52.170;9.978;2023-04-25T05:59:15;7.40;99.90
15241;DHT22;7723;52.170;9.978;2023-04-25T06:01:42;7.40;99.90
15241;DHT22;7723;52.170;9.978;2023-04-25T06:04:09;7.40;99.90
15241;DHT22;7723;52.170;9.978;2023-04-25T06:06:36;7.20;99.90
15241;DHT22;7723;52.170;9.978;2023-04-25T06:09:03;7.20;99.90
15241;DHT22;7723;52.170;9.978;2023-04-25T06:11:30;7.30;99.90
15241;DHT22;7723;52.170;9.978;2023-04-25T06:13:59;7.30;99.90
15241;DHT22;7723;52.170;9.978;2023-04-25T06:16:26;7.30;99.90
15241;DHT22;7723;52.170;9.978;2023-04-25T06:18:53;7.40;99.90
15241;DHT22;7723;52.170;9.978;2023-04-25T06:21:20;7.40;99.90
15241;DHT22;7723;52.170;9.978;2023-04-25T06:23:47;7.40;99.90
15241;DHT22;7723;52.170;9.978;2023-04-25T06:26:14;7.30;99.90
15241;DHT22;7723;52.170;9.978;2023-04-25T06:28:41;7.20;99.90
15241;DHT22;7723;52.170;9.978;2023-04-25T06:31:10;7.00;99.90
15241;DHT22;7723;52.170;9.978;2023-04-25T06:33:37;6.90;99.90
15241;DHT22;7723;52.170;9.978;2023-04-25T06:36:04;6.90;99.90
15241;DHT22;7723;52.170;9.978;2023-04-25T06:38:32;6.90;99.90
15241;DHT22;7723;52.170;9.978;2023-04-25T06:41:00;7.10;99.90
15241;DHT22;7723;52.170;9.978;2023-04-25T06:43:28;7.20;99.90
15241;DHT22;7723;52.170;9.978;2023-04-25T06:45:58;7.20;99.90
15241;DHT22;7723;52.170;9.978;2023-04-25T06:48:27;7.30;99.90
15241;DHT22;7723;52.170;9.978;2023-04-25T06:50:54;7.30;99.90
15241;DHT22;7723;52.170;9.978;2023-04-25T06:53:22;7.50;99.90
15241;DHT22;7723;52.170;9.978;2023-04-25T06:55:49;7.80;99.90
15241;DHT22;7723;52.170;9.978;2023-04-25T06:58:16;8.10;99.90
15241;DHT22;7723;52.170;9.978;2023-04-25T07:00:43;8.20;99.90
15241;DHT22;7723;52.170;9.978;2023-04-25T07:03:10;8.90;99.90
15241;DHT22;7723;52.170;9.978;2023-04-25T07:05:39;9.40;99.90
15241;DHT22;7723;52.170;9.978;2023-04-25T07:08:06;10.20;99.90
15241;DHT22;7723;52.170;9.978;2023-04-25T07:10:33;10.90;10.70
15241;DHT22;7723;52.170;9.978;2023-04-25T07:13:01;10.90;1.00
15241;DHT22;7723;52.170;9.978;2023-04-25T07:15:28;11.00;1.00
15241;DHT22;7723;52.170;9.978;2023-04-25T07:17:55;11.50;1.00
15241;DHT22;7723;52.170;9.978;2023-04-25T07:20:22;11.60;1.00
15241;DHT22;7723;52.170;9.978;2023-04-25T07:22:50;11.40;1.00
15241;DHT22;7723;52.170;9.978;2023-04-25T07:25:17;11.20;1.00
15241;DHT22;7723;52.170;9.978;2023-04-25T07:27:45;10.30;1.00
15241;DHT22;7723;52.170;9.978;2023-04-25T07:30:12;9.80;1.00
15241;DHT22;7723;52.170;9.978;2023-04-25T07:32:40;9.60;1.00
15241;DHT22;7723;52.170;9.978;2023-04-25T07:35:07;9.80;1.00
15241;DHT22;7723;52.170;9.978;2023-04-25T07:37:35;10.40;1.00
15241;DHT22;7723;52.170;9.978;2023-04-25T07:40:04;10.10;1.00
15241;DHT22;7723;52.170;9.978;2023-04-25T07:42:32;10.30;1.00
15241;DHT22;7723;52.170;9.978;2023-04-25T07:45:00;10.40;1.00
15241;DHT22;7723;52.170;9.978;2023-04-25T07:47:28;10.20;1.00
15241;DHT22;7723;52.170;9.978;2023-04-25T07:49:55;10.60;1.00
15241;DHT22;7723;52.170;9.978;2023-04-25T07:52:23;11.10;1.00
15241;DHT22;7723;52.170;9.978;2023-04-25T07:54:50;10.80;1.00
15241;DHT22;7723;52.170;9.978;2023-04-25T07:57:19;10.70;1.00
15241;DHT22;7723;52.170;9.978;2023-04-25T07:59:46;10.70;1.00
15241;DHT22;7723;52.170;9.978;2023-04-25T08:02:13;10.40;1.00
15241;DHT22;7723;52.170;9.978;2023-04-25T08:04:40;10.10;1.00
15241;DHT22;7723;52.170;9.978;2023-04-25T08:07:07;9.90;1.00
15241;DHT22;7723;52.170;9.978;2023-04-25T08:09:35;9.60;1.00
15241;DHT22;7723;52.170;9.978;2023-04-25T08:12:02;9.10;1.00
15241;DHT22;7723;52.170;9.978;2023-04-25T08:14:31;8.70;1.00
15241;DHT22;7723;52.170;9.978;2023-04-25T08:17:01;8.40;1.00
15241;DHT22;7723;52.170;9.978;2023-04-25T08:19:29;8.40;1.00
15241;DHT22;7723;52.170;9.978;2023-04-25T08:21:57;8.20;1.00
15241;DHT22;7723;52.170;9.978;2023-04-25T08:24:24;8.20;1.00
15241;DHT22;7723;52.170;9.978;2023-04-25T08:26:51;8.30;1.00
15241;DHT22;7723;52.170;9.978;2023-04-25T08:29:19;8.20;1.00
15241;DHT22;7723;52.170;9.978;2023-04-25T08:31:48;8.30;1.00
15241;DHT22;7723;52.170;9.978;2023-04-25T08:34:16;8.50;1.00
15241;DHT22;7723;52.170;9.978;2023-04-25T08:36:43;8.80;1.00
15241;DHT22;7723;52.170;9.978;2023-04-25T08:39:10;8.70;1.00
15241;DHT22;7723;52.170;9.978;2023-04-25T08:41:39;8.80;1.00
15241;DHT22;7723;52.170;9.978;2023-04-25T08:44:10;8.90;1.00
15241;DHT22;7723;52.170;9.978;2023-04-25T08:46:38;8.80;1.00
15241;DHT22;7723;52.170;9.978;2023-04-25T08:49:08;8.80;1.00
15241;DHT22;7723;52.170;9.978;2023-04-25T08:51:39;9.50;1.00
15241;DHT22;7723;52.170;9.978;2023-04-25T08:54:09;10.00;1.00
15241;DHT22;7723;52.170;9.978;2023-04-25T08:56:38;10.70;1.00
15241;DHT22;7723;52.170;9.978;2023-04-25T08:59:05;11.30;1.00
15241;DHT22;7723;52.170;9.978;2023-04-25T09:01:34;11.80;1.00
15241;DHT22;7723;52.170;9.978;2023-04-25T09:04:01;12.00;1.00
15241;DHT22;7723;52.170;9.978;2023-04-25T09:06:31;12.10;1.00
15241;DHT22;7723;52.170;9.978;2023-04-25T09:09:02;12.40;1.00
15241;DHT22;7723;52.170;9.978;2023-04-25T09:11:30;12.90;1.00
15241;DHT22;7723;52.170;9.978;2023-04-25T09:14:11;13.10;1.00
15241;DHT22;7723;52.170;9.978;2023-04-25T09:16:57;12.80;1.00
15241;DHT22;7723;52.170;9.978;2023-04-25T09:19:26;12.60;1.00
15241;DHT22;7723;52.170;9.978;2023-04-25T09:21:57;11.70;1.00
15241;DHT22;7723;52.170;9.978;2023-04-25T09:24:35;10.70;1.00
15241;DHT22;7723;52.170;9.978;2023-04-25T09:27:04;10.10;1.00
15241;DHT22;7723;52.170;9.978;2023-04-25T09:29:32;9.60;1.00
15241;DHT22;7723;52.170;9.978;2023-04-25T09:32:15;9.20;1.00
15241;DHT22;7723;52.170;9.978;2023-04-25T09:34:43;8.90;1.00
15241;DHT22;7723;52.170;9.978;2023-04-25T09:37:17;8.70;1.00
15241;DHT22;7723;52.170;9.978;2023-04-25T09:39:46;8.60;1.00
15241;DHT22;7723;52.170;9.978;2023-04-25T09:42:14;8.60;1.00
15241;DHT22;7723;52.170;9.978;2023-04-25T09:44:43;8.70;1.00
15241;DHT22;7723;52.170;9.978;2023-04-25T09:47:11;9.00;1.00
15241;DHT22;7723;52.170;9.978;2023-04-25T09:49:40;9.70;1.00
15241;DHT22;7723;52.170;9.978;2023-04-25T09:52:10;10.60;1.00
15241;DHT22;7723;52.170;9.978;2023-04-25T09:54:41;11.20;1.00
15241;DHT22;7723;52.170;9.978;2023-04-25T09:57:11;11.50;1.00
15241;DHT22;7723;52.170;9.978;2023-04-25T09:59:43;11.10;1.00
15241;DHT22;7723;52.170;9.978;2023-04-25T10:02:11;10.90;1.00
15241;DHT22;7723;52.170;9.978;2023-04-25T10:04:39;10.80;1.00
15241;DHT22;7723;52.170;9.978;2023-04-25T10:07:08;10.80;1.00
15241;DHT22;7723;52.170;9.978;2023-04-25T10:09:37;10.70;1.00
15241;DHT22;7723;52.170;9.978;2023-04-25T10:12:08;10.90;1.00
15241;DHT22;7723;52.170;9.978;2023-04-25T10:14:35;10.60;1.00
15241;DHT22;7723;52.170;9.978;2023-04-25T10:17:03;10.30;1.00
15241;DHT22;7723;52.170;9.978;2023-04-25T10:19:30;10.20;1.00
15241;DHT22;7723;52.170;9.978;2023-04-25T10:22:06;10.30;1.00
15241;DHT22;7723;52.170;9.978;2023-04-25T10:24:35;10.30;1.00
15241;DHT22;7723;52.170;9.978;2023-04-25T10:27:02;10.40;1.00
15241;DHT22;7723;52.170;9.978;2023-04-25T10:29:31;10.40;1.00
15241;DHT22;7723;52.170;9.978;2023-04-25T10:31:58;10.50;1.00
15241;DHT22;7723;52.170;9.978;2023-04-25T10:34:39;10.90;1.00
15241;DHT22;7723;52.170;9.978;2023-04-25T10:37:09;11.50;1.00
15241;DHT22;7723;52.170;9.978;2023-04-25T10:39:39;12.10;1.00
15241;DHT22;7723;52.170;9.978;2023-04-25T10:42:06;12.30;1.00
15241;DHT22;7723;52.170;9.978;2023-04-25T10:44:37;11.90;1.00
15241;DHT22;7723;52.170;9.978;2023-04-25T10:47:07;11.70;1.00
15241;DHT22;7723;52.170;9.978;2023-04-25T10:49:36;11.50;1.00
15241;DHT22;7723;52.170;9.978;2023-04-25T10:52:17;11.40;1.00
15241;DHT22;7723;52.170;9.978;2023-04-25T10:54:47;10.90;1.00
15241;DHT22;7723;52.170;9.978;2023-04-25T10:57:37;10.50;1.00
15241;DHT22;7723;52.170;9.978;2023-04-25T11:00:09;10.20;1.00
15241;DHT22;7723;52.170;9.978;2023-04-25T11:02:46;9.90;1.00
15241;DHT22;7723;52.170;9.978;2023-04-25T11:05:22;9.80;1.00
15241;DHT22;7723;52.170;9.978;2023-04-25T11:07:53;9.60;1.00
15241;DHT22;7723;52.170;9.978;2023-04-25T11:10:26;9.40;1.00
15241;DHT22;7723;52.170;9.978;2023-04-25T11:12:53;9.40;1.00
15241;DHT22;7723;52.170;9.978;2023-04-25T11:15:21;9.30;1.00
15241;DHT22;7723;52.170;9.978;2023-04-25T11:17:51;9.30;1.00
15241;DHT22;7723;52.170;9.978;2023-04-25T11:20:18;9.20;1.00
15241;DHT22;7723;52.170;9.978;2023-04-25T11:22:46;9.30;1.00
15241;DHT22;7723;52.170;9.978;2023-04-25T11:25:15;9.40;1.00
15241;DHT22;7723;52.170;9.978;2023-04-25T11:27:51;9.50;1.00
15241;DHT22;7723;52.170;9.978;2023-04-25T11:30:21;9.80;1.00
15241;DHT22;7723;52.170;9.978;2023-04-25T11:32:48;9.90;1.00
15241;DHT22;7723;52.170;9.978;2023-04-25T11:35:16;10.00;1.00
15241;DHT22;7723;52.170;9.978;2023-04-25T11:37:43;9.80;1.00
15241;DHT22;7723;52.170;9.978;2023-04-25T11:40:11;9.70;1.00
15241;DHT22;7723;52.170;9.978;2023-04-25T11:42:39;9.50;1.00
15241;DHT22;7723;52.170;9.978;2023-04-25T11:45:06;9.40;1.00
15241;DHT22;7723;52.170;9.978;2023-04-25T11:47:37;9.40;1.00
15241;DHT22;7723;52.170;9.978;2023-04-25T11:50:06;9.40;1.00
15241;DHT22;7723;52.170;9.978;2023-04-25T11:52:38;9.40;1.00
15241;DHT22;7723;52.170;9.978;2023-04-25T11:55:07;9.50;1.00
15241;DHT22;7723;52.170;9.978;2023-04-25T11:57:34;9.50;1.00
15241;DHT22;7723;52.170;9.978;2023-04-25T12:00:12;9.30;1.00
15241;DHT22;7723;52.170;9.978;2023-04-25T12:02:43;9.30;1.00
15241;DHT22;7723;52.170;9.978;2023-04-25T12:05:11;9.20;1.00
15241;DHT22;7723;52.170;9.978;2023-04-25T12:07:39;9.20;1.00
15241;DHT22;7723;52.170;9.978;2023-04-25T12:10:07;9.10;1.00
15241;DHT22;7723;52.170;9.978;2023-04-25T12:12:36;9.00;1.00
15241;DHT22;7723;52.170;9.978;2023-04-25T12:15:11;9.00;1.00
15241;DHT22;7723;52.170;9.978;2023-04-25T12:17:44;9.00;1.00
15241;DHT22;7723;52.170;9.978;2023-04-25T12:20:13;8.80;1.00
15241;DHT22;7723;52.170;9.978;2023-04-25T12:22:41;8.40;1.00
15241;DHT22;7723;52.170;9.978;2023-04-25T12:25:11;8.10;1.00
15241;DHT22;7723;52.170;9.978;2023-04-25T12:27:39;7.70;1.00
15241;DHT22;7723;52.170;9.978;2023-04-25T12:30:08;7.70;1.00
15241;DHT22;7723;52.170;9.978;2023-04-25T12:32:36;7.80;1.00
15241;DHT22;7723;52.170;9.978;2023-04-25T12:35:06;7.80;1.00
15241;DHT22;7723;52.170;9.978;2023-04-25T12:37:35;8.00;1.00
15241;DHT22;7723;52.170;9.978;2023-04-25T12:40:03;8.20;1.00
15241;DHT22;7723;52.170;9.978;2023-04-25T12:42:32;8.20;1.00
15241;DHT22;7723;52.170;9.978;2023-04-25T12:44:59;8.40;1.00
15241;DHT22;7723;52.170;9.978;2023-04-25T12:47:26;8.80;1.00
15241;DHT22;7723;52.170;9.978;2023-04-25T12:49:53;9.20;1.00
15241;DHT22;7723;52.170;9.978;2023-04-25T12:52:22;9.70;1.00
15241;DHT22;7723;52.170;9.978;2023-04-25T12:54:49;9.90;1.00
15241;DHT22;7723;52.170;9.978;2023-04-25T12:57:16;9.80;1.00
15241;DHT22;7723;52.170;9.978;2023-04-25T12:59:43;9.90;1.00
15241;DHT22;7723;52.170;9.978;2023-04-25T13:02:10;9.80;1.00
15241;DHT22;7723;52.170;9.978;2023-04-25T13:04:37;9.90;1.00
15241;DHT22;7723;52.170;9.978;2023-04-25T13:07:04;10.00;1.00
15241;DHT22;7723;52.170;9.978;2023-04-25T13:09:33;10.20;1.00
15241;DHT22;7723;52.170;9.978;2023-04-25T13:12:00;10.20;1.00
15241;DHT22;7723;52.170;9.978;2023-04-25T13:14:27;10.30;1.00
15241;DHT22;7723;52.170;9.978;2023-04-25T13:16:54;10.30;1.00
15241;DHT22;7723;52.170;9.978;2023-04-25T13:19:21;10.40;1.00
15241;DHT22;7723;52.170;9.978;2023-04-25T13:21:48;10.40;1.00
15241;DHT22;7723;52.170;9.978;2023-04-25T13:24:15;10.20;1.00
15241;DHT22;7723;52.170;9.978;2023-04-25T13:26:44;10.10;1.00
15241;DHT22;7723;52.170;9.978;2023-04-25T13:29:11;10.00;1.00
15241;DHT22;7723;52.170;9.978;2023-04-25T13:31:38;9.70;1.00
15241;DHT22;7723;52.170;9.978;2023-04-25T13:34:05;9.50;1.00
15241;DHT22;7723;52.170;9.978;2023-04-25T13:36:32;9.40;1.00
15241;DHT22;7723;52.170;9.978;2023-04-25T13:38:59;9.10;1.00
15241;DHT22;7723;52.170;9.978;2023-04-25T13:41:26;9.00;1.00
15241;DHT22;7723;52.170;9.978;2023-04-25T13:43:55;8.80;1.00
15241;DHT22;7723;52.170;9.978;2023-04-25T13:46:22;8.70;1.00
15241;DHT22;7723;52.170;9.978;2023-04-25T13:48:49;8.60;1.00
15241;DHT22;7723;52.170;9.978;2023-04-25T13:51:16;8.50;1.00
15241;DHT22;7723;52.170;9.978;2023-04-25T13:53:44;8.30;1.00
15241;DHT22;7723;52.170;9.978;2023-04-25T13:56:12;8.10;1.00
15241;DHT22;7723;52.170;9.978;2023-04-25T13:58:39;8.10;1.00
15241;DHT22;7723;52.170;9.978;2023-04-25T14:01:08;8.10;1.00
15241;DHT22;7723;52.170;9.978;2023-04-25T14:03:35;8.10;1.00
15241;DHT22;7723;52.170;9.978;2023-04-25T14:06:02;8.20;1.00
15241;DHT22;7723;52.170;9.978;2023-04-25T14:08:30;8.30;1.00
15241;DHT22;7723;52.170;9.978;2023-04-25T14:10:57;8.60;1.00
15241;DHT22;7723;52.170;9.978;2023-04-25T14:13:24;8.80;1.00
15241;DHT22;7723;52.170;9.978;2023-04-25T14:15:51;9.00;1.00
15241;DHT22;7723;52.170;9.978;2023-04-25T14:18:19;9.30;1.00
15241;DHT22;7723;52.170;9.978;2023-04-25T14:20:47;9.30;1.00
15241;DHT22;7723;52.170;9.978;2023-04-25T14:23:15;9.40;1.00
15241;DHT22;7723;52.170;9.978;2023-04-25T14:25:43;9.40;1.00
15241;DHT22;7723;52.170;9.978;2023-04-25T14:28:10;9.30;1.00
15241;DHT22;7723;52.170;9.978;2023-04-25T14:30:37;9.20;1.00
15241;DHT22;7723;52.170;9.978;2023-04-25T14:33:04;9.40;1.00
15241;DHT22;7723;52.170;9.978;2023-04-25T14:35:33;9.40;1.00
15241;DHT22;7723;52.170;9.978;2023-04-25T14:38:00;9.40;1.00
15241;DHT22;7723;52.170;9.978;2023-04-25T14:40:27;9.30;1.00
15241;DHT22;7723;52.170;9.978;2023-04-25T14:42:54;9.30;1.00
15241;DHT22;7723;52.170;9.978;2023-04-25T14:45:21;8.80;1.00
15241;DHT22;7723;52.170;9.978;2023-04-25T14:47:50;8.30;1.00
15241;DHT22;7723;52.170;9.978;2023-04-25T14:50:17;7.90;1.00
15241;DHT22;7723;52.170;9.978;2023-04-25T14:52:45;7.70;1.00
15241;DHT22;7723;52.170;9.978;2023-04-25T14:55:12;7.60;1.00
15241;DHT22;7723;52.170;9.978;2023-04-25T14:57:39;7.60;1.00
15241;DHT22;7723;52.170;9.978;2023-04-25T15:00:08;7.80;1.00
15241;DHT22;7723;52.170;9.978;2023-04-25T15:02:35;8.00;1.00
15241;DHT22;7723;52.170;9.978;2023-04-25T15:05:03;8.20;1.00
15241;DHT22;7723;52.170;9.978;2023-04-25T15:07:30;8.30;1.00
15241;DHT22;7723;52.170;9.978;2023-04-25T15:09:58;8.50;1.00
15241;DHT22;7723;52.170;9.978;2023-04-25T15:12:26;8.70;1.00
15241;DHT22;7723;52.170;9.978;2023-04-25T15:14:54;7.70;1.00
15241;DHT22;7723;52.170;9.978;2023-04-25T15:17:21;8.90;1.00
15241;DHT22;7723;52.170;9.978;2023-04-25T15:19:48;9.00;1.00
15241;DHT22;7723;52.170;9.978;2023-04-25T15:22:16;9.00;1.00
15241;DHT22;7723;52.170;9.978;2023-04-25T15:24:43;9.10;1.00
15241;DHT22;7723;52.170;9.978;2023-04-25T15:27:12;9.00;1.00
15241;DHT22;7723;52.170;9.978;2023-04-25T15:29:39;9.10;1.00
15241;DHT22;7723;52.170;9.978;2023-04-25T15:32:07;9.20;1.00
15241;DHT22;7723;52.170;9.978;2023-04-25T15:34:34;9.50;1.00
15241;DHT22;7723;52.170;9.978;2023-04-25T15:37:01;9.70;1.00
15241;DHT22;7723;52.170;9.978;2023-04-25T15:39:28;9.80;1.00
15241;DHT22;7723;52.170;9.978;2023-04-25T15:41:55;9.70;1.00
15241;DHT22;7723;52.170;9.978;2023-04-25T15:44:25;9.70;1.00
15241;DHT22;7723;52.170;9.978;2023-04-25T15:46:52;9.80;1.00
15241;DHT22;7723;52.170;9.978;2023-04-25T15:49:19;9.80;1.00
15241;DHT22;7723;52.170;9.978;2023-04-25T15:51:47;9.70;1.00
15241;DHT22;7723;52.170;9.978;2023-04-25T15:54:14;9.60;1.00
15241;DHT22;7723;52.170;9.978;2023-04-25T15:56:42;9.50;1.00
15241;DHT22;7723;52.170;9.978;2023-04-25T15:59:09;9.50;1.00
15241;DHT22;7723;52.170;9.978;2023-04-25T16:01:38;9.40;1.00
15241;DHT22;7723;52.170;9.978;2023-04-25T16:04:05;9.40;1.00
15241;DHT22;7723;52.170;9.978;2023-04-25T16:06:32;9.20;1.00
15241;DHT22;7723;52.170;9.978;2023-04-25T16:09:01;9.00;1.00
15241;DHT22;7723;52.170;9.978;2023-04-25T16:11:28;8.90;1.00